PLVO2: Washita River nr Pauls Valley, OK

Data processed at Sat Jul 14 2018 23:46


All information presented herein is the property of the government of the United States of America and may be revised or deleted at any time without prior notice.
Dissemination of this information without the expressed written consent of the Public Affairs Office, Tulsa District U.S. Army Corps of Engineers is strictly prohibited.
These data are gathered electronically and, as presented, have not undergone any form of quality control. These data are not guaranteed to be valid or correct.
Go to home page.
Go to station list.

Upstream stations:

Downstream station:
Previous Day
Next Day
Current Day
    
SHEF ID:       PLVO2     Washita River near Pauls Valley
STATION TYPE:  

               PRECIP     STAGE  RIV-FLOW  BAT-LOAD
                   in        ft       cfs      volt
              Ccp-Rev   Ccp-Rev   Ccp-Rev   Ccp-Rev
(US/Central)
07/12 00:00      0.00      4.77       180     12.73
07/12 01:00      0.00      4.78       182     12.65
07/12 02:00      0.00      4.78       182     12.65
07/12 03:00      0.00      4.78       182     12.65
07/12 04:00      0.00      4.78       182     12.65
07/12 05:00      0.00      4.78       182     12.65
07/12 06:00      0.00      4.78       182     12.57
07/12 07:00      0.00      4.78       182     12.57
07/12 08:00      0.00      4.77       180     12.65
07/12 09:00      0.00      4.78       182     12.57
07/12 10:00      0.00      4.77       180     12.65
07/12 11:00      0.00      4.77       180     12.73
07/12 12:00      0.00      4.78       182     12.81
07/12 13:00      0.00      4.76       177     12.97
07/12 14:00      0.00      4.73       169     13.05
07/12 15:00      0.02      4.75       175     13.21
07/12 16:00      0.00      4.78       182     13.05
07/12 17:00      0.00      4.73       169     12.97
07/12 18:00      0.00      4.77       180     12.89
07/12 19:00      0.00      4.75       175     12.89
07/12 20:00      0.00      4.75       175     12.89
07/12 21:00      0.00      4.75       175     12.81
07/12 22:00      0.00      4.74       172     12.73
07/12 23:00      0.00      4.74       172     12.73